Time;durP1;ratioP1;P1;durP2;ratioP2;P2;SDS_P1;SDS_P2;PMS_P1;PMS_P2;Temp;Humidity;BMP_temperature;BMP_pressure;BME280_temperature;BME280_humidity;BME280_pressure;Samples;Min_cycle;Max_cycle;Signal;HPM_P1;HPM_P2
2022/07/30 00:02:19;;;;;;;11.50;10.37;;;23.70;75.60;;;;;;5094415;28;20441;-68
2022/07/30 00:04:49;;;;;;;11.40;10.30;;;23.60;75.70;;;;;;5093461;28;20517;-68
2022/07/30 00:07:17;;;;;;;8.40;7.07;;;23.70;75.60;;;;;;5094382;28;20527;-67
2022/07/30 00:09:46;;;;;;;11.20;10.03;;;23.70;75.70;;;;;;5093477;28;20482;-72
2022/07/30 00:12:14;;;;;;;7.73;6.60;;;23.70;75.60;;;;;;5092154;28;20470;-68
2022/07/30 00:14:42;;;;;;;12.03;11.03;;;23.60;75.70;;;;;;5085315;28;20472;-67
2022/07/30 00:17:10;;;;;;;9.80;9.07;;;23.60;75.80;;;;;;5093915;28;20839;-67
2022/07/30 00:19:39;;;;;;;11.30;10.00;;;23.60;75.70;;;;;;5091452;28;20450;-68
2022/07/30 00:22:08;;;;;;;10.83;9.93;;;23.70;75.50;;;;;;5083005;28;20822;-67
2022/07/30 00:24:36;;;;;;;9.80;8.83;;;23.70;75.20;;;;;;5086126;28;20515;-68
2022/07/30 00:27:05;;;;;;;10.87;9.77;;;23.70;75.30;;;;;;5088494;28;20920;-67
2022/07/30 00:29:33;;;;;;;10.33;9.43;;;23.70;75.10;;;;;;5088919;28;20489;-67
2022/07/30 00:32:04;;;;;;;10.73;9.70;;;23.70;75.30;;;;;;5093010;28;20476;-67
2022/07/30 00:34:32;;;;;;;11.27;9.87;;;23.70;75.20;;;;;;5092066;28;20524;-67
2022/07/30 00:37:00;;;;;;;10.67;9.77;;;23.60;75.40;;;;;;5093621;28;20529;-69
2022/07/30 00:39:30;;;;;;;10.80;10.00;;;23.50;75.70;;;;;;5092087;28;20571;-69
2022/07/30 00:42:01;;;;;;;12.03;10.93;;;23.50;75.60;;;;;;5093026;28;20445;-67
2022/07/30 00:44:29;;;;;;;14.93;13.40;;;23.40;75.80;;;;;;5092747;28;20487;-67
2022/07/30 00:46:58;;;;;;;15.50;11.80;;;23.40;75.90;;;;;;5083391;28;20507;-72
2022/07/30 00:49:27;;;;;;;15.00;10.63;;;23.30;76.00;;;;;;5092910;28;20450;-68
2022/07/30 00:51:55;;;;;;;13.30;11.00;;;23.20;76.20;;;;;;5092551;28;20898;-67
2022/07/30 00:54:23;;;;;;;12.70;11.50;;;23.20;76.40;;;;;;5089585;28;20589;-67
2022/07/30 00:56:53;;;;;;;11.93;9.97;;;23.20;76.40;;;;;;5091547;28;20854;-68
2022/07/30 00:59:21;;;;;;;11.00;10.00;;;23.30;76.20;;;;;;5092985;28;20454;-67
2022/07/30 01:01:49;;;;;;;11.40;10.23;;;23.30;76.30;;;;;;5074676;28;20450;-68
2022/07/30 01:04:18;;;;;;;10.77;9.43;;;23.30;75.90;;;;;;5080330;28;20525;-69
2022/07/30 01:06:46;;;;;;;10.17;8.50;;;23.30;76.00;;;;;;5087948;28;20460;-68
2022/07/30 01:09:14;;;;;;;9.00;8.10;;;23.30;75.90;;;;;;5091727;28;20476;-68
2022/07/30 01:11:44;;;;;;;9.30;8.50;;;23.40;75.80;;;;;;5082668;28;20833;-70
2022/07/30 01:14:14;;;;;;;8.47;7.77;;;23.50;75.60;;;;;;5091299;28;20445;-68
2022/07/30 01:16:43;;;;;;;8.17;7.57;;;23.50;75.50;;;;;;5086721;28;20994;-68
2022/07/30 01:22:12;;;;;;;9.53;8.63;;;23.50;75.40;;;;;;5088531;28;20506;-67
2022/07/30 01:24:44;;;;;;;9.00;8.30;;;23.40;75.60;;;;;;5087926;28;20520;-67
2022/07/30 01:27:15;;;;;;;10.17;9.20;;;23.20;75.90;;;;;;5089240;28;20437;-67
2022/07/30 01:29:48;;;;;;;10.40;9.47;;;23.20;76.20;;;;;;5071654;28;20457;-67
2022/07/30 01:32:19;;;;;;;8.97;8.17;;;23.20;76.00;;;;;;5082726;28;20480;-70
2022/07/30 01:34:49;;;;;;;10.73;9.93;;;23.10;76.20;;;;;;5085454;28;20469;-68
2022/07/30 01:37:18;;;;;;;9.80;8.93;;;23.20;76.10;;;;;;5089872;28;21095;-67
2022/07/30 01:39:49;;;;;;;9.23;8.53;;;23.20;76.00;;;;;;5090555;28;21083;-68
2022/07/30 01:42:20;;;;;;;10.37;9.43;;;23.30;75.90;;;;;;5076140;28;20449;-70
2022/07/30 01:44:49;;;;;;;9.63;8.83;;;23.30;75.60;;;;;;5072644;28;20868;-68
2022/07/30 01:47:19;;;;;;;8.33;7.73;;;23.40;75.60;;;;;;5081952;28;20450;-68
2022/07/30 01:49:50;;;;;;;8.93;8.13;;;23.40;75.70;;;;;;5092109;28;20966;-69
2022/07/30 01:52:19;;;;;;;8.60;7.80;;;23.50;75.20;;;;;;5091994;28;20534;-68
2022/07/30 01:54:52;;;;;;;7.53;6.90;;;23.50;75.20;;;;;;5078149;28;20508;-69
2022/07/30 01:57:23;;;;;;;9.03;8.23;;;23.50;75.30;;;;;;5084450;28;20453;-68
2022/07/30 01:59:54;;;;;;;8.10;7.40;;;23.40;75.30;;;;;;5088494;28;20552;-68
2022/07/30 02:02:23;;;;;;;9.30;8.40;;;23.40;75.40;;;;;;5077356;28;20449;-67
2022/07/30 02:04:51;;;;;;;9.23;8.53;;;23.30;75.60;;;;;;5086733;28;20534;-69
2022/07/30 02:07:27;;;;;;;8.17;7.57;;;23.30;75.60;;;;;;5068782;28;20467;-68
2022/07/30 02:09:59;;;;;;;9.00;8.20;;;23.20;75.60;;;;;;5090279;28;20857;-67
2022/07/30 02:12:31;;;;;;;8.67;7.87;;;23.10;75.90;;;;;;5086697;28;20980;-68
2022/07/30 02:15:17;;;;;;;8.67;8.07;;;23.10;76.00;;;;;;5074137;28;20469;-67
2022/07/30 02:17:54;;;;;;;8.70;7.90;;;23.20;75.90;;;;;;5070426;28;20985;-67
2022/07/30 02:20:28;;;;;;;8.43;7.70;;;23.20;75.70;;;;;;5085404;28;20487;-67
2022/07/30 02:23:02;;;;;;;7.90;7.30;;;23.10;75.70;;;;;;5072890;28;20461;-69
2022/07/30 02:25:34;;;;;;;9.77;7.80;;;23.00;76.20;;;;;;5072431;28;20513;-69
2022/07/30 02:28:09;;;;;;;9.37;8.57;;;22.90;76.40;;;;;;5074154;28;20468;-67
2022/07/30 02:30:44;;;;;;;9.00;8.20;;;22.90;76.40;;;;;;5073920;28;20446;-67
2022/07/30 02:33:15;;;;;;;9.53;8.70;;;22.90;76.30;;;;;;5090641;28;20477;-67
2022/07/30 02:35:43;;;;;;;9.47;8.67;;;23.00;76.20;;;;;;5073415;28;20461;-67
2022/07/30 02:38:15;;;;;;;10.73;9.73;;;23.00;76.10;;;;;;5090749;28;20452;-68
2022/07/30 02:40:45;;;;;;;9.00;8.30;;;23.10;75.80;;;;;;5091992;28;20941;-68
2022/07/30 02:43:16;;;;;;;11.70;8.70;;;23.10;75.80;;;;;;5081204;28;20454;-68
2022/07/30 02:45:47;;;;;;;10.70;9.60;;;23.10;75.60;;;;;;5091556;28;20457;-68
2022/07/30 02:48:17;;;;;;;9.60;8.60;;;23.00;75.90;;;;;;5077240;28;20818;-67
2022/07/30 02:51:04;;;;;;;9.70;8.87;;;23.00;76.00;;;;;;5078031;28;20443;-67
2022/07/30 02:53:58;;;;;;;11.70;10.63;;;22.90;76.10;;;;;;5094828;28;20468;-67
2022/07/30 02:56:29;;;;;;;10.20;9.20;;;22.90;76.20;;;;;;5077181;28;20465;-67
2022/07/30 02:59:03;;;;;;;10.17;9.07;;;22.80;76.40;;;;;;5068810;28;20469;-68
2022/07/30 03:01:32;;;;;;;10.40;9.57;;;22.70;76.60;;;;;;5077187;28;20962;-68
2022/07/30 03:04:02;;;;;;;10.10;9.33;;;22.60;76.80;;;;;;5070865;28;20596;-70
2022/07/30 03:06:31;;;;;;;11.90;11.00;;;22.60;76.80;;;;;;5095642;28;20532;-69
2022/07/30 03:09:02;;;;;;;10.00;9.20;;;22.70;76.70;;;;;;5076140;28;20477;-67
2022/07/30 03:11:31;;;;;;;11.53;9.27;;;22.70;76.70;;;;;;5077349;28;20548;-67
2022/07/30 03:14:02;;;;;;;9.27;8.40;;;22.60;76.90;;;;;;5077209;28;20476;-67
2022/07/30 03:16:37;;;;;;;10.33;9.53;;;22.60;76.80;;;;;;5095357;28;20483;-68
2022/07/30 03:19:08;;;;;;;11.50;10.40;;;22.70;76.60;;;;;;5084997;28;20681;-67
2022/07/30 03:21:41;;;;;;;13.40;10.80;;;22.70;76.50;;;;;;5095248;28;20449;-67
2022/07/30 03:24:12;;;;;;;11.10;10.20;;;22.70;76.40;;;;;;5065597;28;20492;-67
2022/07/30 03:26:41;;;;;;;12.27;10.93;;;22.70;76.50;;;;;;5057073;28;20446;-67
2022/07/30 03:29:14;;;;;;;9.90;9.10;;;22.70;76.50;;;;;;5084680;28;20453;-67
2022/07/30 03:31:43;;;;;;;11.73;10.27;;;22.60;76.80;;;;;;5093892;28;20517;-68
2022/07/30 03:34:12;;;;;;;11.13;10.07;;;22.60;76.90;;;;;;5085953;28;20533;-67
2022/07/30 03:36:42;;;;;;;11.73;10.77;;;22.50;77.00;;;;;;5084115;28;20501;-68
2022/07/30 03:39:11;;;;;;;10.63;9.63;;;22.60;77.00;;;;;;5067031;28;20469;-67
2022/07/30 03:41:40;;;;;;;11.93;10.93;;;22.50;77.00;;;;;;5078343;28;20483;-68
2022/07/30 03:44:14;;;;;;;11.00;9.93;;;22.50;77.30;;;;;;5056254;28;20809;-67
2022/07/30 03:46:44;;;;;;;13.27;11.90;;;22.50;77.30;;;;;;5078150;28;20472;-67
2022/07/30 03:49:13;;;;;;;11.20;10.20;;;22.50;77.20;;;;;;5084538;28;20510;-67
2022/07/30 03:51:47;;;;;;;9.33;8.50;;;22.50;77.20;;;;;;5092990;28;20481;-67
2022/07/30 03:54:16;;;;;;;12.13;10.67;;;22.50;77.30;;;;;;5074101;28;20835;-67
2022/07/30 03:56:59;;;;;;;10.93;9.90;;;22.50;77.10;;;;;;5075193;28;20468;-67
2022/07/30 03:59:41;;;;;;;12.10;9.20;;;22.50;77.10;;;;;;5068328;28;20504;-67
2022/07/30 04:02:10;;;;;;;11.00;9.93;;;22.60;77.10;;;;;;5090981;28;20473;-67
2022/07/30 04:05:05;;;;;;;10.73;9.70;;;22.60;77.00;;;;;;5065285;28;20808;-67
2022/07/30 04:07:33;;;;;;;10.00;9.00;;;22.50;77.30;;;;;;5072511;28;20492;-68
2022/07/30 04:10:12;;;;;;;8.47;7.77;;;22.50;77.30;;;;;;5059879;28;20519;-67
2022/07/30 04:13:00;;;;;;;9.33;8.43;;;22.50;77.40;;;;;;5041857;28;20449;-67
2022/07/30 04:15:41;;;;;;;10.20;9.40;;;22.60;77.10;;;;;;5071510;28;20873;-67
2022/07/30 04:18:36;;;;;;;9.33;8.50;;;22.70;77.10;;;;;;5074881;28;20461;-67
2022/07/30 04:21:22;;;;;;;9.87;8.97;;;22.70;77.00;;;;;;5076164;28;20468;-67
2022/07/30 04:23:52;;;;;;;9.67;8.87;;;22.70;76.60;;;;;;5079455;28;20952;-67
2022/07/30 04:26:32;;;;;;;11.10;10.10;;;22.80;76.40;;;;;;5082365;28;20460;-67
2022/07/30 04:29:04;;;;;;;13.47;10.50;;;22.80;76.30;;;;;;5093224;28;20461;-67
2022/07/30 04:31:35;;;;;;;11.63;9.47;;;22.80;76.40;;;;;;5074776;28;21435;-67
2022/07/30 04:34:31;;;;;;;9.43;7.97;;;22.80;76.50;;;;;;5064057;28;20493;-68
2022/07/30 04:36:59;;;;;;;10.27;9.47;;;22.70;76.70;;;;;;5076253;28;20814;-67
2022/07/30 04:39:29;;;;;;;8.67;7.87;;;22.80;76.60;;;;;;5092810;28;20440;-67
2022/07/30 04:41:57;;;;;;;8.67;7.87;;;22.90;76.40;;;;;;5065690;28;20503;-68
2022/07/30 04:44:33;;;;;;;9.80;8.90;;;22.90;76.20;;;;;;5073580;28;20863;-68
2022/07/30 04:47:21;;;;;;;8.87;8.07;;;22.90;76.00;;;;;;5085709;28;20522;-68
2022/07/30 04:50:12;;;;;;;10.17;9.23;;;22.90;76.10;;;;;;5092030;28;20445;-68
2022/07/30 04:52:43;;;;;;;7.50;6.77;;;22.90;76.10;;;;;;5075881;28;20545;-68
2022/07/30 04:55:16;;;;;;;10.20;9.30;;;22.90;75.90;;;;;;5073572;28;20488;-68
2022/07/30 04:57:48;;;;;;;9.07;8.07;;;23.10;75.50;;;;;;5075185;28;20578;-67
2022/07/30 05:00:17;;;;;;;9.73;8.73;;;23.10;75.40;;;;;;5077685;28;20481;-72
2022/07/30 05:02:49;;;;;;;10.70;9.90;;;23.10;75.40;;;;;;5082969;28;20789;-67
2022/07/30 05:05:19;;;;;;;10.33;9.40;;;23.00;75.80;;;;;;5086070;28;20493;-69
2022/07/30 05:07:49;;;;;;;10.40;9.40;;;23.00;75.90;;;;;;5089061;28;20450;-68
2022/07/30 05:10:18;;;;;;;12.73;10.43;;;22.90;76.20;;;;;;5055081;28;20472;-67
2022/07/30 05:12:47;;;;;;;10.40;9.40;;;22.90;76.30;;;;;;5074989;28;20809;-67
2022/07/30 05:15:18;;;;;;;10.10;9.20;;;22.80;76.60;;;;;;5074233;28;20481;-68
2022/07/30 05:17:49;;;;;;;10.57;9.57;;;22.80;76.50;;;;;;5075240;28;20465;-67
2022/07/30 05:20:18;;;;;;;9.50;8.70;;;22.70;76.60;;;;;;5074377;28;20860;-68
2022/07/30 05:23:07;;;;;;;9.70;9.00;;;22.70;76.50;;;;;;5075248;28;21005;-67
2022/07/30 05:25:36;;;;;;;9.17;8.47;;;22.80;76.30;;;;;;5078983;28;20484;-67
2022/07/30 05:28:27;;;;;;;8.03;7.53;;;22.80;76.00;;;;;;5080273;28;20453;-68
2022/07/30 05:30:57;;;;;;;9.60;8.80;;;22.80;75.80;;;;;;5075942;28;20465;-67
2022/07/30 05:33:27;;;;;;;9.73;8.47;;;22.80;76.00;;;;;;5073711;28;20499;-67
2022/07/30 05:36:21;;;;;;;9.97;8.97;;;22.90;75.80;;;;;;5072736;28;20558;-68
2022/07/30 05:38:50;;;;;;;9.67;8.80;;;23.00;75.30;;;;;;5089681;28;20460;-68
2022/07/30 05:41:50;;;;;;;9.10;8.30;;;23.00;75.30;;;;;;5067810;28;20451;-68
2022/07/30 05:44:22;;;;;;;9.63;8.17;;;23.00;75.40;;;;;;5054519;28;20458;-67
2022/07/30 05:46:52;;;;;;;9.37;8.47;;;23.00;75.40;;;;;;5068415;28;20462;-67
2022/07/30 05:49:21;;;;;;;8.70;8.00;;;23.10;75.10;;;;;;5074290;28;20501;-67
2022/07/30 05:51:51;;;;;;;6.83;6.37;;;23.20;74.80;;;;;;5078934;28;20576;-67
2022/07/30 05:54:19;;;;;;;6.67;6.17;;;23.30;74.50;;;;;;5090321;28;21032;-68
2022/07/30 05:57:11;;;;;;;8.70;7.90;;;23.40;74.10;;;;;;5079941;28;20461;-67
2022/07/30 05:59:40;;;;;;;9.23;8.40;;;23.50;73.80;;;;;;5079282;28;20971;-68
2022/07/30 06:02:09;;;;;;;9.93;8.00;;;23.50;73.20;;;;;;5071979;28;20514;-67
2022/07/30 06:04:56;;;;;;;8.43;7.63;;;23.60;73.50;;;;;;5071541;28;20489;-70
2022/07/30 06:07:25;;;;;;;9.13;8.23;;;23.60;73.20;;;;;;5089692;28;20449;-67
2022/07/30 06:09:58;;;;;;;9.53;8.50;;;23.40;73.00;;;;;;5083829;28;20490;-68
2022/07/30 06:12:27;;;;;;;9.63;8.90;;;23.30;73.50;;;;;;5078222;28;20544;-67
2022/07/30 06:14:57;;;;;;;10.07;9.10;;;23.30;73.40;;;;;;5091260;28;20476;-67
2022/07/30 06:17:42;;;;;;;9.17;8.40;;;23.30;73.60;;;;;;5078032;28;20458;-67
2022/07/30 06:20:23;;;;;;;8.10;7.50;;;23.30;73.20;;;;;;5071831;28;20459;-69
2022/07/30 06:23:09;;;;;;;8.80;7.90;;;23.30;73.30;;;;;;5084324;28;20867;-67
2022/07/30 06:25:55;;;;;;;9.47;8.60;;;23.40;73.00;;;;;;5071700;28;21003;-67
2022/07/30 06:28:23;;;;;;;7.90;6.53;;;23.50;73.00;;;;;;5094803;28;20984;-68
2022/07/30 06:31:33;;;;;;;7.97;7.37;;;23.50;72.90;;;;;;5089816;28;20462;-68
2022/07/30 06:34:01;;;;;;;8.77;7.97;;;23.60;72.30;;;;;;5076755;28;20983;-67
2022/07/30 06:36:36;;;;;;;8.63;8.03;;;23.70;72.40;;;;;;5083409;28;20500;-68
2022/07/30 06:39:09;;;;;;;9.30;8.50;;;23.80;72.10;;;;;;5084750;28;20820;-68
2022/07/30 06:42:03;;;;;;;9.63;8.73;;;23.80;72.10;;;;;;5061768;28;20462;-68
2022/07/30 06:44:57;;;;;;;9.20;7.87;;;23.80;71.50;;;;;;5086690;28;20877;-68
2022/07/30 06:47:27;;;;;;;9.17;8.47;;;23.80;72.00;;;;;;5083184;28;20454;-68
2022/07/30 06:49:57;;;;;;;8.53;7.83;;;23.70;72.10;;;;;;5074545;28;20888;-67
2022/07/30 06:52:29;;;;;;;10.27;9.33;;;23.80;72.30;;;;;;5081451;28;20496;-68
2022/07/30 06:54:57;;;;;;;9.07;8.37;;;23.80;71.40;;;;;;5084251;28;20579;-68
2022/07/30 06:57:45;;;;;;;9.77;9.07;;;23.80;71.60;;;;;;5074388;28;20469;-68
2022/07/30 07:00:33;;;;;;;9.27;8.57;;;23.90;72.20;;;;;;5093888;28;21042;-67
2022/07/30 07:03:07;;;;;;;9.13;8.43;;;23.90;71.80;;;;;;5074640;28;20492;-72
2022/07/30 07:05:39;;;;;;;9.47;8.57;;;23.80;72.00;;;;;;5086954;28;20492;-67
2022/07/30 07:08:08;;;;;;;9.40;8.67;;;23.80;71.40;;;;;;5076562;28;20457;-69
2022/07/30 07:10:42;;;;;;;7.17;6.47;;;23.90;72.00;;;;;;5086867;28;20472;-68
2022/07/30 07:13:15;;;;;;;6.87;6.37;;;24.00;72.20;;;;;;5072543;28;20472;-68
2022/07/30 07:15:43;;;;;;;9.00;7.57;;;24.10;71.40;;;;;;5067052;28;20977;-71
2022/07/30 07:18:17;;;;;;;8.43;7.73;;;24.20;71.20;;;;;;5076748;28;21375;-68
2022/07/30 07:20:53;;;;;;;9.40;8.70;;;24.30;70.70;;;;;;5082598;28;20984;-70
2022/07/30 07:23:24;;;;;;;8.43;7.73;;;24.40;71.00;;;;;;5072801;28;21080;-68
2022/07/30 07:26:11;;;;;;;5.43;4.97;;;24.50;70.50;;;;;;5082763;28;20561;-68
2022/07/30 07:28:40;;;;;;;6.60;5.30;;;24.60;70.70;;;;;;5084850;28;20872;-68
2022/07/30 07:31:11;;;;;;;7.80;6.50;;;24.80;70.50;;;;;;5082601;28;20521;-68
2022/07/30 07:34:00;;;;;;;7.60;6.90;;;25.00;70.10;;;;;;5099774;28;20492;-68
2022/07/30 07:36:28;;;;;;;7.33;6.70;;;25.20;69.30;;;;;;5085515;28;20467;-68
2022/07/30 07:38:58;;;;;;;6.20;5.80;;;25.30;68.70;;;;;;5072683;28;20519;-68
2022/07/30 07:41:26;;;;;;;7.10;5.10;;;25.40;68.30;;;;;;5077830;28;20496;-68
2022/07/30 07:43:54;;;;;;;7.00;5.10;;;25.40;68.00;;;;;;5073988;28;20453;-68
2022/07/30 07:46:32;;;;;;;5.20;4.80;;;25.50;67.80;;;;;;5083321;28;20469;-67
2022/07/30 07:49:03;;;;;;;5.03;4.63;;;25.60;67.70;;;;;;5076831;28;20471;-67
2022/07/30 07:51:35;;;;;;;6.13;5.63;;;25.60;67.40;;;;;;5074705;28;20838;-67
2022/07/30 07:54:17;;;;;;;4.40;4.10;;;25.60;64.60;;;;;;5081337;28;20531;-68
2022/07/30 07:56:50;;;;;;;5.10;4.80;;;25.60;66.70;;;;;;5075694;28;20567;-69
2022/07/30 07:59:20;;;;;;;5.93;5.30;;;25.60;64.30;;;;;;5072397;28;20473;-68
2022/07/30 08:01:50;;;;;;;4.77;4.47;;;25.60;64.00;;;;;;5073055;28;20974;-67
2022/07/30 08:04:21;;;;;;;4.63;4.17;;;25.50;63.90;;;;;;5083328;28;20483;-67
2022/07/30 08:07:15;;;;;;;5.90;4.27;;;25.50;64.10;;;;;;5088275;28;20464;-68
2022/07/30 08:10:09;;;;;;;6.97;5.20;;;25.50;63.80;;;;;;5092631;28;20455;-69
2022/07/30 08:12:56;;;;;;;6.13;5.60;;;25.40;64.40;;;;;;5089134;28;20819;-68
2022/07/30 08:15:59;;;;;;;4.87;4.47;;;25.40;62.80;;;;;;5027249;28;20553;-67
2022/07/30 08:18:46;;;;;;;5.20;4.53;;;25.50;63.60;;;;;;5085372;28;20463;-68
2022/07/30 08:21:27;;;;;;;5.00;4.60;;;25.50;63.00;;;;;;5084482;28;20521;-68
2022/07/30 08:23:55;;;;;;;4.60;4.30;;;25.50;62.90;;;;;;5081375;28;20472;-68
2022/07/30 08:26:25;;;;;;;4.83;4.30;;;25.60;63.00;;;;;;5065485;28;20924;-70
2022/07/30 08:28:53;;;;;;;5.90;5.40;;;25.70;62.90;;;;;;5080144;28;20467;-68
2022/07/30 08:31:22;;;;;;;4.40;4.10;;;25.70;62.10;;;;;;5072157;28;20525;-68
2022/07/30 08:33:50;;;;;;;5.20;4.73;;;25.70;62.80;;;;;;5087913;28;20514;-71
2022/07/30 08:36:19;;;;;;;5.60;5.10;;;25.70;62.40;;;;;;5085765;28;20472;-69
2022/07/30 08:38:53;;;;;;;4.13;3.83;;;25.80;62.50;;;;;;5069032;28;20466;-69
2022/07/30 08:41:22;;;;;;;5.67;5.27;;;25.90;62.30;;;;;;5078679;28;20883;-68
2022/07/30 08:43:52;;;;;;;4.88;4.25;;;25.80;61.60;;;;;;5086501;28;20486;-68
2022/07/30 08:46:24;;;;;;;4.63;4.23;;;25.70;62.60;;;;;;5069003;28;20294;-67
2022/07/30 08:49:02;;;;;;;4.23;3.73;;;25.50;61.50;;;;;;5076571;28;20452;-68
2022/07/30 08:51:39;;;;;;;4.30;4.00;;;25.50;61.50;;;;;;5079091;28;20496;-68
2022/07/30 08:54:35;;;;;;;4.67;4.20;;;25.50;61.50;;;;;;5083524;28;20464;-68
2022/07/30 08:57:03;;;;;;;9.23;4.40;;;25.50;60.90;;;;;;5080786;28;21035;-68
2022/07/30 08:59:34;;;;;;;4.30;4.00;;;25.60;60.80;;;;;;5075543;28;20460;-67
2022/07/30 09:02:22;;;;;;;4.67;4.20;;;25.60;61.20;;;;;;5088496;28;20462;-69
2022/07/30 09:05:02;;;;;;;5.27;4.17;;;25.60;61.30;;;;;;5082521;28;21020;-68
2022/07/30 09:07:32;;;;;;;4.40;4.00;;;25.60;59.90;;;;;;5080613;28;20468;-68
2022/07/30 09:10:01;;;;;;;4.93;4.43;;;25.60;61.00;;;;;;5078410;28;20456;-68
2022/07/30 09:12:36;;;;;;;3.87;3.57;;;25.70;59.90;;;;;;5083379;28;20471;-68
2022/07/30 09:15:09;;;;;;;4.87;4.57;;;25.70;58.40;;;;;;5084732;28;20545;-68
2022/07/30 09:17:54;;;;;;;4.47;4.17;;;25.70;60.10;;;;;;5075581;28;20485;-67
2022/07/30 09:20:25;;;;;;;4.80;4.40;;;25.70;59.00;;;;;;5090107;28;20828;-68
2022/07/30 09:22:55;;;;;;;5.53;4.27;;;25.70;59.30;;;;;;5086394;28;20461;-69
2022/07/30 09:25:43;;;;;;;4.27;3.97;;;25.70;58.20;;;;;;5087142;28;20558;-67
2022/07/30 09:28:32;;;;;;;3.53;3.33;;;25.60;59.50;;;;;;5089596;28;20455;-68
2022/07/30 09:31:22;;;;;;;3.80;3.43;;;25.60;60.30;;;;;;5091340;28;20451;-68
2022/07/30 09:34:28;;;;;;;3.80;3.50;;;25.60;59.80;;;;;;5065673;28;20456;-70
2022/07/30 09:37:17;;;;;;;4.60;4.30;;;25.70;59.80;;;;;;5088929;28;20470;-68
2022/07/30 09:40:12;;;;;;;4.13;3.83;;;25.60;59.80;;;;;;5085423;28;20481;-68
2022/07/30 09:43:04;;;;;;;4.27;3.87;;;25.60;59.20;;;;;;5090936;28;20946;-67
2022/07/30 09:45:32;;;;;;;4.33;3.87;;;25.60;59.10;;;;;;5096265;28;20464;-68
2022/07/30 09:48:22;;;;;;;4.93;4.13;;;25.60;59.80;;;;;;5082012;28;20530;-68
2022/07/30 09:50:52;;;;;;;4.40;4.03;;;25.70;58.90;;;;;;5081289;28;20457;-67
2022/07/30 09:53:22;;;;;;;4.40;4.10;;;25.60;59.50;;;;;;5083075;28;20463;-68
2022/07/30 09:55:51;;;;;;;3.70;3.50;;;25.60;60.20;;;;;;5084722;28;20460;-68
2022/07/30 09:58:20;;;;;;;5.23;4.83;;;25.60;60.40;;;;;;5080819;28;21023;-69
2022/07/30 10:00:58;;;;;;;4.17;3.97;;;25.70;59.70;;;;;;5066987;28;20808;-68
2022/07/30 10:03:48;;;;;;;4.80;4.50;;;25.70;58.90;;;;;;5087565;28;21007;-69
2022/07/30 10:06:34;;;;;;;5.00;4.60;;;25.60;60.00;;;;;;5083686;28;20503;-68
2022/07/30 10:09:25;;;;;;;3.93;3.67;;;25.70;60.00;;;;;;5084880;28;20468;-68
2022/07/30 10:11:55;;;;;;;4.57;4.13;;;25.70;59.90;;;;;;5091948;28;20490;-69
2022/07/30 10:14:32;;;;;;;3.60;3.40;;;25.80;59.90;;;;;;5075609;28;20481;-68
2022/07/30 10:17:10;;;;;;;4.90;4.60;;;25.90;59.80;;;;;;5098026;28;20527;-69
2022/07/30 10:19:42;;;;;;;5.13;4.83;;;26.00;60.00;;;;;;5078539;28;20518;-69
2022/07/30 10:22:34;;;;;;;3.70;3.50;;;25.90;59.40;;;;;;5090945;28;20437;-68
2022/07/30 10:25:23;;;;;;;4.70;4.30;;;25.90;59.30;;;;;;5088404;28;20454;-70
2022/07/30 10:28:07;;;;;;;4.80;4.50;;;25.90;58.10;;;;;;5086143;28;20450;-70
2022/07/30 10:30:36;;;;;;;5.23;4.73;;;25.90;58.70;;;;;;5084475;28;20917;-68
2022/07/30 10:33:08;;;;;;;4.77;4.43;;;25.80;58.20;;;;;;5086462;28;20539;-69
2022/07/30 10:35:58;;;;;;;4.83;4.10;;;25.70;58.70;;;;;;5087019;28;20530;-68
2022/07/30 10:38:32;;;;;;;4.60;4.30;;;25.80;59.10;;;;;;5087428;28;20478;-69
2022/07/30 10:41:07;;;;;;;4.00;3.70;;;25.80;60.00;;;;;;5077033;28;20452;-68
2022/07/30 10:44:06;;;;;;;4.93;4.60;;;25.90;59.80;;;;;;5087647;28;21012;-68
2022/07/30 10:46:48;;;;;;;5.57;4.47;;;25.90;58.80;;;;;;5085854;28;20833;-68
2022/07/30 10:49:18;;;;;;;4.90;4.50;;;26.00;59.30;;;;;;5087998;28;20505;-68
2022/07/30 10:51:49;;;;;;;4.40;4.20;;;26.00;59.20;;;;;;5085373;28;20573;-68
2022/07/30 10:54:39;;;;;;;4.80;4.50;;;26.00;58.70;;;;;;5063101;28;20474;-68
2022/07/30 10:57:10;;;;;;;4.27;3.97;;;25.90;58.80;;;;;;5065058;28;20493;-69
2022/07/30 11:00:13;;;;;;;4.17;3.90;;;26.00;59.20;;;;;;5087627;28;20496;-68
2022/07/30 11:03:12;;;;;;;5.33;4.83;;;26.00;60.40;;;;;;5083668;28;20457;-68
2022/07/30 11:05:43;;;;;;;4.97;4.43;;;26.10;60.30;;;;;;5070367;28;20454;-69
2022/07/30 11:08:31;;;;;;;4.37;4.07;;;26.10;59.40;;;;;;5072690;28;20952;-68
2022/07/30 11:11:32;;;;;;;4.80;4.37;;;26.20;58.90;;;;;;5073391;28;20874;-69
2022/07/30 11:14:21;;;;;;;5.30;4.87;;;26.20;58.70;;;;;;5069106;28;20459;-68
2022/07/30 11:17:00;;;;;;;5.23;4.83;;;26.20;58.40;;;;;;5069270;28;20467;-68
2022/07/30 11:19:29;;;;;;;5.20;4.80;;;26.20;58.30;;;;;;5071209;28;20527;-70
2022/07/30 11:22:26;;;;;;;4.87;4.40;;;26.30;58.00;;;;;;5069461;28;20500;-71
2022/07/30 11:24:55;;;;;;;4.50;4.20;;;26.30;57.60;;;;;;5067735;28;20485;-70
2022/07/30 11:27:41;;;;;;;4.07;3.87;;;26.30;57.50;;;;;;5070464;28;20464;-68
2022/07/30 11:30:34;;;;;;;5.50;4.97;;;26.30;57.50;;;;;;5071661;28;20914;-68
2022/07/30 11:33:26;;;;;;;4.60;4.13;;;26.30;57.30;;;;;;5069101;28;20941;-70
2022/07/30 11:36:29;;;;;;;4.80;4.40;;;26.30;57.00;;;;;;5071524;28;20453;-68
2022/07/30 11:38:59;;;;;;;4.37;4.17;;;26.30;57.00;;;;;;5067031;28;20506;-69
2022/07/30 11:41:35;;;;;;;4.40;4.10;;;26.30;57.00;;;;;;5070341;28;20464;-68
2022/07/30 11:44:26;;;;;;;3.50;3.20;;;26.30;57.30;;;;;;5064086;28;21041;-68
2022/07/30 11:46:57;;;;;;;4.47;4.07;;;26.40;57.00;;;;;;5068696;28;20491;-68
2022/07/30 11:49:25;;;;;;;4.10;3.83;;;26.40;56.70;;;;;;5068060;28;20456;-68
2022/07/30 11:51:57;;;;;;;4.70;4.40;;;26.40;56.50;;;;;;5068748;28;20490;-68
2022/07/30 11:54:26;;;;;;;3.90;3.70;;;26.30;56.50;;;;;;5063903;28;20531;-68
2022/07/30 11:57:00;;;;;;;3.35;3.15;;;26.30;56.50;;;;;;5070385;28;20550;-69
2022/07/30 11:59:31;;;;;;;4.90;4.10;;;26.30;56.00;;;;;;5068002;28;20542;-68
2022/07/30 12:02:00;;;;;;;3.53;3.17;;;26.30;55.70;;;;;;5068807;28;20455;-67
2022/07/30 12:04:30;;;;;;;3.60;3.40;;;26.30;56.50;;;;;;5079286;28;20489;-68
2022/07/30 12:06:58;;;;;;;3.90;3.60;;;26.30;56.40;;;;;;5076969;28;20510;-68
2022/07/30 12:09:28;;;;;;;3.60;3.40;;;26.40;56.50;;;;;;5095819;28;20490;-68
2022/07/30 12:11:58;;;;;;;5.53;3.50;;;26.40;56.90;;;;;;5093203;28;20451;-68
2022/07/30 12:14:37;;;;;;;3.77;3.40;;;26.30;57.10;;;;;;5080572;28;20484;-69
2022/07/30 12:17:05;;;;;;;3.93;3.40;;;26.30;57.20;;;;;;5089828;28;21218;-72
2022/07/30 12:19:44;;;;;;;3.40;3.20;;;26.40;56.60;;;;;;5086223;28;20470;-69
2022/07/30 12:22:15;;;;;;;4.23;3.83;;;26.40;56.30;;;;;;5090397;28;20981;-69
2022/07/30 12:24:43;;;;;;;3.90;3.60;;;26.40;56.00;;;;;;5086998;28;20518;-70
2022/07/30 12:27:13;;;;;;;3.20;3.10;;;26.40;55.50;;;;;;5089710;28;20493;-68
2022/07/30 12:29:41;;;;;;;2.90;2.70;;;26.40;55.20;;;;;;5090449;28;20476;-68
2022/07/30 12:32:10;;;;;;;3.23;3.03;;;26.40;55.40;;;;;;5091258;28;20447;-68
2022/07/30 12:34:39;;;;;;;4.17;3.00;;;26.40;55.20;;;;;;5092436;28;20941;-71
2022/07/30 12:37:08;;;;;;;2.63;2.53;;;26.40;54.90;;;;;;5092326;28;20495;-68
2022/07/30 12:39:37;;;;;;;3.80;3.60;;;26.40;54.30;;;;;;5087210;28;20938;-68
2022/07/30 12:42:17;;;;;;;3.00;2.70;;;26.50;54.20;;;;;;5085279;28;20454;-68
2022/07/30 12:44:48;;;;;;;2.77;2.60;;;26.50;54.10;;;;;;5081293;28;20540;-71
2022/07/30 12:47:22;;;;;;;2.40;2.20;;;26.60;53.70;;;;;;5092927;28;20466;-68
2022/07/30 12:49:51;;;;;;;5.93;2.70;;;26.60;53.50;;;;;;5091795;28;20463;-68
2022/07/30 12:52:25;;;;;;;2.77;2.57;;;26.60;53.20;;;;;;5092260;28;20477;-68
2022/07/30 12:55:01;;;;;;;3.13;2.83;;;26.60;53.10;;;;;;5066465;28;20551;-73
2022/07/30 12:57:54;;;;;;;3.73;2.63;;;26.60;54.40;;;;;;5082937;28;20921;-69
2022/07/30 13:00:25;;;;;;;3.03;2.83;;;26.60;54.40;;;;;;5090355;28;20461;-69
2022/07/30 13:02:54;;;;;;;2.43;2.33;;;26.60;54.90;;;;;;5090894;28;20516;-67
2022/07/30 13:05:46;;;;;;;2.83;2.73;;;26.60;55.20;;;;;;5089346;28;20545;-69
2022/07/30 13:08:14;;;;;;;3.03;2.83;;;26.70;55.10;;;;;;5089085;28;20477;-68
2022/07/30 13:10:58;;;;;;;2.70;2.60;;;26.80;55.10;;;;;;5090765;28;20448;-68
2022/07/30 13:13:26;;;;;;;2.60;2.40;;;26.90;54.80;;;;;;5086534;28;20458;-69
2022/07/30 13:16:23;;;;;;;2.70;2.50;;;26.90;54.30;;;;;;5084303;28;20489;-70
2022/07/30 13:18:51;;;;;;;3.00;2.90;;;26.70;54.30;;;;;;5084695;28;20575;-67
2022/07/30 13:21:23;;;;;;;2.73;2.57;;;26.60;54.60;;;;;;5089610;28;20899;-71
2022/07/30 13:23:51;;;;;;;2.80;2.60;;;26.50;54.80;;;;;;5087497;28;20495;-68
2022/07/30 13:26:35;;;;;;;2.60;2.40;;;26.40;54.60;;;;;;5088836;28;20816;-69
2022/07/30 13:29:04;;;;;;;2.30;2.20;;;26.50;54.50;;;;;;5085179;28;20595;-72